createdAt,value
2023-05-19T00:02:22.177Z,15.18
2023-05-19T00:04:50.784Z,15.14
2023-05-19T00:07:19.309Z,15.18
2023-05-19T00:09:47.896Z,15.11
2023-05-19T00:12:18.169Z,15.14
2023-05-19T00:14:46.695Z,15.10
2023-05-19T00:17:17.026Z,15.08
2023-05-19T00:19:45.245Z,15.03
2023-05-19T00:22:13.340Z,15.02
2023-05-19T00:24:41.333Z,14.97
2023-05-19T00:27:09.360Z,14.94
2023-05-19T00:29:38.694Z,14.88
2023-05-19T00:32:07.155Z,14.87
2023-05-19T00:34:35.198Z,14.79
2023-05-19T00:37:03.213Z,14.76
2023-05-19T00:39:31.167Z,14.76
2023-05-19T00:41:59.160Z,14.75
2023-05-19T00:44:27.182Z,14.68
2023-05-19T00:46:56.646Z,14.70
2023-05-19T00:49:24.657Z,14.65
2023-05-19T00:51:52.645Z,14.58
2023-05-19T00:54:20.635Z,14.57
2023-05-19T00:56:49.884Z,14.53
2023-05-19T00:59:17.928Z,14.53
2023-05-19T01:01:49.083Z,14.55
2023-05-19T01:04:20.223Z,14.54
2023-05-19T01:06:48.416Z,14.49
2023-05-19T01:09:16.417Z,14.50
2023-05-19T01:11:44.391Z,14.43
2023-05-19T01:14:12.354Z,14.42
2023-05-19T01:16:41.940Z,14.38
2023-05-19T01:19:15.494Z,14.34
2023-05-19T01:22:02.349Z,14.46
2023-05-19T01:24:55.008Z,14.39
2023-05-19T01:27:43.539Z,14.39
2023-05-19T01:30:25.511Z,14.40
2023-05-19T01:32:54.675Z,14.44
2023-05-19T01:35:23.314Z,14.41
2023-05-19T01:37:51.309Z,14.49
2023-05-19T01:40:19.571Z,14.57
2023-05-19T01:42:47.559Z,14.62
2023-05-19T01:45:15.567Z,14.71
2023-05-19T01:47:49.261Z,14.66
2023-05-19T01:50:17.237Z,14.63
2023-05-19T01:52:45.234Z,14.68
2023-05-19T01:55:13.192Z,14.65
2023-05-19T01:57:45.339Z,14.72
2023-05-19T02:00:17.197Z,14.79
2023-05-19T02:02:54.512Z,14.79
2023-05-19T02:05:29.416Z,14.81
2023-05-19T02:08:00.094Z,14.77
2023-05-19T02:10:30.878Z,14.79
2023-05-19T02:13:02.085Z,14.71
2023-05-19T02:15:31.458Z,14.62
2023-05-19T02:18:04.692Z,14.49
2023-05-19T02:20:33.081Z,14.48
2023-05-19T02:23:01.385Z,14.41
2023-05-19T02:25:29.362Z,14.38
2023-05-19T02:27:59.049Z,14.29
2023-05-19T02:30:27.066Z,14.20
2023-05-19T02:32:55.496Z,14.16
2023-05-19T02:35:24.837Z,14.13
2023-05-19T02:37:52.772Z,14.16
2023-05-19T02:40:20.937Z,14.07
2023-05-19T02:42:48.929Z,14.00
2023-05-19T02:45:17.048Z,13.96
2023-05-19T02:47:45.134Z,13.92
2023-05-19T02:50:13.102Z,13.80
2023-05-19T02:52:42.426Z,13.79
2023-05-19T02:55:16.921Z,13.81
2023-05-19T02:57:44.955Z,13.76
2023-05-19T03:00:13.845Z,13.73
2023-05-19T03:02:44.237Z,13.79
2023-05-19T03:05:12.355Z,13.77
2023-05-19T03:07:40.349Z,13.81
2023-05-19T03:10:10.544Z,13.79
2023-05-19T03:12:38.598Z,13.81
2023-05-19T03:15:07.785Z,13.85
2023-05-19T03:17:36.504Z,13.94
2023-05-19T03:20:06.023Z,13.93
2023-05-19T03:22:34.258Z,14.04
2023-05-19T03:25:02.485Z,14.14
2023-05-19T03:27:31.999Z,14.20
2023-05-19T03:30:00.046Z,14.34
2023-05-19T03:32:28.076Z,14.48
2023-05-19T03:34:56.089Z,14.60
2023-05-19T03:37:24.075Z,14.71
2023-05-19T03:39:52.088Z,14.85
2023-05-19T03:42:20.115Z,15.14
2023-05-19T03:44:49.540Z,15.38
2023-05-19T03:47:17.580Z,15.58
2023-05-19T03:49:45.683Z,15.79
2023-05-19T03:52:13.779Z,15.91
2023-05-19T03:54:42.850Z,16.13
2023-05-19T03:57:11.094Z,16.17
2023-05-19T03:59:41.346Z,16.21
2023-05-19T04:02:10.862Z,16.41
2023-05-19T04:04:39.074Z,16.50
2023-05-19T04:07:07.307Z,16.65
2023-05-19T04:09:35.643Z,16.81
2023-05-19T04:12:03.869Z,17.09
2023-05-19T04:14:31.869Z,17.27
2023-05-19T04:17:00.030Z,17.40
2023-05-19T04:19:29.449Z,18.67
2023-05-19T04:21:57.839Z,20.11
2023-05-19T04:24:26.244Z,20.96
2023-05-19T04:26:54.235Z,21.99
2023-05-19T04:29:24.052Z,23.22
2023-05-19T04:31:52.806Z,24.15
2023-05-19T04:34:20.852Z,24.92
2023-05-19T04:36:53.063Z,25.32
2023-05-19T04:39:21.723Z,25.38
2023-05-19T04:41:49.747Z,26.06
2023-05-19T04:44:18.544Z,25.97
2023-05-19T04:46:46.652Z,24.73
2023-05-19T04:49:14.732Z,24.21
2023-05-19T04:51:42.683Z,23.54
2023-05-19T04:54:12.069Z,23.05
2023-05-19T04:56:40.531Z,22.42
2023-05-19T04:59:09.937Z,22.17
2023-05-19T05:01:40.956Z,21.67
2023-05-19T05:04:09.026Z,21.62
2023-05-19T05:06:38.819Z,21.41
2023-05-19T05:09:06.885Z,21.44
2023-05-19T05:11:36.953Z,21.78
2023-05-19T05:14:05.454Z,21.63
2023-05-19T05:16:34.210Z,21.59
2023-05-19T05:19:02.768Z,22.27
2023-05-19T05:21:31.970Z,22.67
2023-05-19T05:24:00.518Z,22.36
2023-05-19T05:26:31.142Z,22.32
2023-05-19T05:29:00.582Z,22.55
2023-05-19T05:31:28.880Z,22.87
2023-05-19T05:33:56.897Z,22.55
2023-05-19T05:36:24.885Z,22.60
2023-05-19T05:38:52.941Z,22.84
2023-05-19T05:41:21.728Z,23.26
2023-05-19T05:43:49.716Z,24.42
2023-05-19T05:46:19.351Z,25.30
2023-05-19T05:48:48.162Z,26.39
2023-05-19T05:51:16.645Z,27.22
2023-05-19T05:53:44.646Z,27.53
2023-05-19T05:56:14.281Z,27.63
2023-05-19T05:58:42.394Z,28.90
2023-05-19T06:01:11.620Z,29.28
2023-05-19T06:03:42.541Z,27.67
2023-05-19T06:06:10.534Z,27.18
2023-05-19T06:08:38.542Z,27.57
2023-05-19T06:11:08.840Z,27.81
2023-05-19T06:13:36.966Z,28.67
2023-05-19T06:16:05.253Z,27.85
2023-05-19T06:18:33.392Z,28.25
2023-05-19T06:21:03.410Z,28.39
2023-05-19T06:23:31.798Z,29.08
2023-05-19T06:25:59.771Z,29.53
2023-05-19T06:28:27.725Z,28.98
2023-05-19T06:30:55.771Z,28.17
2023-05-19T06:33:24.659Z,27.41
2023-05-19T06:35:54.158Z,28.24
2023-05-19T06:38:23.547Z,28.17
2023-05-19T06:40:51.587Z,28.23
2023-05-19T06:43:19.626Z,28.42
2023-05-19T06:45:47.581Z,28.45
2023-05-19T06:48:15.590Z,27.67
2023-05-19T06:50:43.677Z,28.11
2023-05-19T06:53:11.613Z,28.19
2023-05-19T06:55:54.393Z,28.54
2023-05-19T06:58:26.784Z,27.61
2023-05-19T07:00:54.926Z,26.48
2023-05-19T07:03:22.898Z,26.03
2023-05-19T07:05:51.259Z,26.18
2023-05-19T07:08:19.221Z,26.49
2023-05-19T07:10:48.574Z,25.64
2023-05-19T07:13:16.534Z,25.48
2023-05-19T07:15:44.544Z,25.46
2023-05-19T07:18:12.631Z,25.23
2023-05-19T07:20:40.680Z,24.28
2023-05-19T07:23:08.661Z,24.35
2023-05-19T07:25:36.620Z,25.22
2023-05-19T07:28:06.228Z,25.32
2023-05-19T07:30:34.534Z,25.18
2023-05-19T07:33:02.809Z,25.92
2023-05-19T07:35:30.937Z,25.68
2023-05-19T07:37:58.901Z,25.14
2023-05-19T07:40:26.925Z,24.73
2023-05-19T07:42:54.861Z,25.40
2023-05-19T07:45:24.360Z,25.74
2023-05-19T07:47:52.749Z,25.73
2023-05-19T07:50:20.815Z,25.75
2023-05-19T07:52:48.774Z,25.64
2023-05-19T07:55:18.061Z,26.05
2023-05-19T07:57:46.072Z,26.53
2023-05-19T08:00:15.099Z,26.87
2023-05-19T08:02:44.638Z,26.45
2023-05-19T08:05:12.762Z,26.56
2023-05-19T08:07:40.726Z,26.92
2023-05-19T08:10:09.431Z,27.26
2023-05-19T08:12:37.395Z,26.95
2023-05-19T08:15:06.334Z,26.66
2023-05-19T08:17:34.299Z,26.81
2023-05-19T08:20:05.333Z,27.15
2023-05-19T08:22:33.289Z,26.87
2023-05-19T08:25:01.507Z,26.60
2023-05-19T08:27:30.032Z,26.05
2023-05-19T08:29:58.415Z,25.67
2023-05-19T08:32:26.575Z,25.82
2023-05-19T08:34:54.607Z,25.97
2023-05-19T08:37:23.948Z,26.46
2023-05-19T08:39:51.897Z,26.56
2023-05-19T08:42:19.928Z,26.50
2023-05-19T08:44:47.916Z,25.82
2023-05-19T08:47:15.989Z,25.69
2023-05-19T08:49:45.344Z,25.53
2023-05-19T08:52:18.410Z,25.47
2023-05-19T08:54:51.989Z,25.67
2023-05-19T08:57:20.090Z,25.44
2023-05-19T08:59:49.067Z,25.26
2023-05-19T09:02:17.093Z,25.28
2023-05-19T09:04:46.205Z,25.34
2023-05-19T09:07:14.763Z,25.39
2023-05-19T09:09:43.960Z,25.42
2023-05-19T09:12:14.626Z,25.40
2023-05-19T09:14:42.653Z,25.26
2023-05-19T09:17:10.788Z,24.95
2023-05-19T09:19:43.868Z,25.23
2023-05-19T09:22:11.822Z,25.34
2023-05-19T09:24:40.575Z,25.33
2023-05-19T09:27:08.740Z,25.38
2023-05-19T09:29:38.123Z,25.07
2023-05-19T09:32:07.053Z,24.84
2023-05-19T09:34:35.042Z,25.26
2023-05-19T09:37:03.034Z,25.44
2023-05-19T09:39:31.033Z,25.74
2023-05-19T09:41:59.112Z,25.92
2023-05-19T09:44:29.389Z,25.97
2023-05-19T09:46:59.944Z,26.08
2023-05-19T09:49:29.634Z,26.22
2023-05-19T09:51:57.960Z,26.17
2023-05-19T09:54:27.532Z,26.31
2023-05-19T09:56:59.995Z,26.39
2023-05-19T09:59:30.659Z,26.42
2023-05-19T10:02:02.427Z,26.20
2023-05-19T10:04:31.390Z,26.32
2023-05-19T10:07:00.513Z,26.47
2023-05-19T10:09:29.083Z,26.46
2023-05-19T10:11:57.680Z,26.68
2023-05-19T10:14:26.787Z,26.92
2023-05-19T10:16:55.418Z,27.27
2023-05-19T10:19:25.347Z,27.49
2023-05-19T10:21:53.505Z,28.04
2023-05-19T10:24:21.515Z,28.48
2023-05-19T10:26:50.973Z,28.50
2023-05-19T10:29:20.904Z,29.20
2023-05-19T10:31:48.888Z,29.64
2023-05-19T10:34:28.687Z,30.02
2023-05-19T10:37:00.274Z,30.50
2023-05-19T10:39:30.944Z,29.66
2023-05-19T10:42:03.494Z,30.73
2023-05-19T10:44:37.107Z,31.60
2023-05-19T10:47:07.703Z,32.29
2023-05-19T10:49:37.647Z,32.56
2023-05-19T10:52:06.001Z,32.17
2023-05-19T10:54:47.293Z,31.58
2023-05-19T10:57:18.372Z,30.76
2023-05-19T10:59:46.430Z,30.62
2023-05-19T11:02:38.528Z,31.62
2023-05-19T11:05:10.787Z,32.08
2023-05-19T11:07:38.915Z,31.70
2023-05-19T11:10:07.337Z,31.30
2023-05-19T11:12:41.429Z,31.38
2023-05-19T11:15:11.478Z,30.75
2023-05-19T11:17:40.494Z,30.20
2023-05-19T11:20:12.298Z,30.88
2023-05-19T11:22:40.249Z,31.43
2023-05-19T11:25:09.839Z,31.40
2023-05-19T11:27:40.210Z,32.12
2023-05-19T11:30:15.149Z,32.04
2023-05-19T11:32:44.148Z,31.62
2023-05-19T11:35:13.637Z,31.25
2023-05-19T11:37:43.769Z,31.67
2023-05-19T11:40:12.386Z,32.25
2023-05-19T11:42:40.872Z,32.69
2023-05-19T11:45:10.533Z,33.83
2023-05-19T11:47:50.837Z,34.03
2023-05-19T11:50:27.821Z,32.97
2023-05-19T11:52:57.741Z,31.99
2023-05-19T11:55:26.015Z,30.46
2023-05-19T11:58:04.027Z,29.18
2023-05-19T12:00:40.466Z,28.63
2023-05-19T12:03:09.332Z,28.09
2023-05-19T12:05:43.226Z,28.68
2023-05-19T12:08:12.039Z,29.95
2023-05-19T12:10:40.227Z,31.35
2023-05-19T12:13:09.829Z,32.50
2023-05-19T12:15:38.761Z,32.55
2023-05-19T12:18:07.421Z,33.85
2023-05-19T12:20:36.485Z,33.78
2023-05-19T12:23:06.109Z,33.01
2023-05-19T12:25:34.338Z,33.81
2023-05-19T12:28:03.561Z,34.06
2023-05-19T12:30:32.902Z,34.50
2023-05-19T12:33:02.759Z,34.39
2023-05-19T12:35:33.230Z,34.42
2023-05-19T12:38:05.850Z,33.77
2023-05-19T12:40:34.942Z,33.06
2023-05-19T12:43:03.431Z,32.47
2023-05-19T12:45:35.515Z,31.68
2023-05-19T12:48:05.390Z,30.64
2023-05-19T12:50:34.560Z,29.82
2023-05-19T12:53:02.983Z,29.31
2023-05-19T12:55:32.647Z,28.63
2023-05-19T12:58:00.793Z,27.99
2023-05-19T13:00:31.170Z,27.39
2023-05-19T13:03:00.915Z,27.04
2023-05-19T13:05:29.863Z,26.68
2023-05-19T13:07:58.419Z,26.28
2023-05-19T13:10:27.225Z,25.43
2023-05-19T13:12:56.816Z,23.27
2023-05-19T13:15:26.276Z,20.75
2023-05-19T13:17:54.577Z,19.70
2023-05-19T13:20:22.780Z,18.81
2023-05-19T13:22:50.889Z,18.39
2023-05-19T13:25:19.018Z,18.12
2023-05-19T13:27:47.113Z,17.80
2023-05-19T13:30:16.876Z,17.59
2023-05-19T13:32:44.932Z,17.43
2023-05-19T13:35:13.569Z,17.34
2023-05-19T13:37:43.302Z,17.26
2023-05-19T13:40:12.324Z,17.25
2023-05-19T13:42:40.444Z,17.27
2023-05-19T13:45:09.853Z,17.39
2023-05-19T13:47:39.829Z,17.50
2023-05-19T13:50:08.674Z,17.62
2023-05-19T13:52:36.802Z,17.66
2023-05-19T13:55:05.265Z,17.72
2023-05-19T13:57:33.303Z,17.84
2023-05-19T14:00:06.142Z,17.93
2023-05-19T14:02:34.935Z,18.08
2023-05-19T14:05:04.725Z,18.23
2023-05-19T14:07:34.811Z,18.18
2023-05-19T14:10:03.211Z,17.82
2023-05-19T14:12:41.615Z,17.53
2023-05-19T14:15:15.645Z,17.21
2023-05-19T14:17:43.755Z,17.09
2023-05-19T14:20:13.781Z,16.93
2023-05-19T14:22:41.904Z,16.84
2023-05-19T14:25:10.484Z,16.83
2023-05-19T14:27:39.943Z,16.77
2023-05-19T14:30:09.826Z,16.72
2023-05-19T14:32:37.939Z,16.67
2023-05-19T14:35:06.920Z,16.64
2023-05-19T14:37:36.363Z,16.77
2023-05-19T14:40:05.393Z,16.82
2023-05-19T14:42:33.427Z,16.88
2023-05-19T14:45:01.506Z,16.90
2023-05-19T14:47:29.726Z,17.01
2023-05-19T14:49:57.869Z,17.09
2023-05-19T14:52:26.286Z,17.16
2023-05-19T14:54:56.119Z,17.27
2023-05-19T14:57:24.188Z,17.30
2023-05-19T14:59:52.244Z,17.25
2023-05-19T15:02:20.299Z,17.25
2023-05-19T15:04:48.366Z,17.19
2023-05-19T15:07:16.428Z,17.20
2023-05-19T15:09:44.782Z,17.11
2023-05-19T15:12:14.219Z,17.18
2023-05-19T15:14:42.283Z,17.18
2023-05-19T15:17:10.698Z,17.26
2023-05-19T15:19:40.973Z,17.32
2023-05-19T15:22:09.020Z,17.33
2023-05-19T15:24:37.092Z,17.42
2023-05-19T15:27:05.156Z,17.42
2023-05-19T15:29:34.800Z,17.54
2023-05-19T15:32:03.024Z,17.60
2023-05-19T15:34:31.066Z,17.59
2023-05-19T15:36:59.145Z,17.64
2023-05-19T15:39:27.380Z,17.76
2023-05-19T15:41:55.419Z,17.80
2023-05-19T15:44:23.440Z,17.81
2023-05-19T15:46:52.854Z,17.87
2023-05-19T15:49:20.921Z,17.90
2023-05-19T15:51:48.933Z,17.95
2023-05-19T15:54:16.928Z,17.98
2023-05-19T15:56:44.985Z,17.98
2023-05-19T15:59:12.967Z,18.04
2023-05-19T16:01:41.047Z,17.90
2023-05-19T16:04:10.499Z,17.81
2023-05-19T16:06:38.585Z,17.85
2023-05-19T16:09:06.763Z,17.89
2023-05-19T16:11:34.819Z,17.84
2023-05-19T16:14:02.826Z,17.78
2023-05-19T16:16:30.843Z,17.89
2023-05-19T16:18:58.964Z,17.83
2023-05-19T16:21:28.391Z,17.81
2023-05-19T16:23:56.404Z,17.83
2023-05-19T16:26:24.409Z,17.83
2023-05-19T16:28:52.451Z,17.91
2023-05-19T16:31:20.504Z,17.90
2023-05-19T16:33:48.553Z,17.89
2023-05-19T16:36:16.602Z,17.94
2023-05-19T16:38:45.985Z,17.97
2023-05-19T16:41:14.009Z,17.97
2023-05-19T16:43:42.096Z,17.96
2023-05-19T16:46:12.331Z,18.00
2023-05-19T16:48:40.463Z,17.94
2023-05-19T16:51:08.553Z,17.90
2023-05-19T16:53:36.608Z,17.80
2023-05-19T16:56:08.072Z,17.77
2023-05-19T16:58:36.232Z,17.74
2023-05-19T17:01:04.406Z,17.68
2023-05-19T17:03:32.849Z,17.65
2023-05-19T17:06:01.587Z,17.57
2023-05-19T17:08:29.644Z,17.47
2023-05-19T17:11:02.358Z,17.35
2023-05-19T17:13:33.843Z,17.29
2023-05-19T17:16:01.921Z,17.21
2023-05-19T17:18:30.532Z,17.19
2023-05-19T17:20:59.313Z,17.20
2023-05-19T17:23:27.356Z,17.16
2023-05-19T17:25:55.876Z,17.10
2023-05-19T17:28:23.943Z,17.06
2023-05-19T17:30:53.376Z,17.09
2023-05-19T17:33:21.468Z,17.09
2023-05-19T17:35:49.586Z,17.06
2023-05-19T17:38:17.672Z,17.12
2023-05-19T17:40:45.724Z,17.16
2023-05-19T17:43:13.788Z,17.21
2023-05-19T17:45:41.874Z,17.19
2023-05-19T17:48:11.720Z,17.16
2023-05-19T17:50:39.831Z,17.14
2023-05-19T17:53:08.408Z,17.13
2023-05-19T17:55:37.261Z,16.95
2023-05-19T17:58:05.754Z,17.11
2023-05-19T18:00:34.419Z,17.10
2023-05-19T18:03:04.942Z,16.92
2023-05-19T18:05:35.072Z,17.05
2023-05-19T18:08:05.111Z,17.00
2023-05-19T18:10:33.315Z,16.98
2023-05-19T18:13:01.539Z,16.96
2023-05-19T18:15:29.606Z,16.93
2023-05-19T18:17:57.791Z,16.89
2023-05-19T18:20:25.897Z,16.84
2023-05-19T18:22:55.431Z,16.83
2023-05-19T18:25:23.514Z,16.81
2023-05-19T18:27:51.658Z,16.78
2023-05-19T18:30:20.500Z,16.74
2023-05-19T18:32:48.596Z,16.72
2023-05-19T18:35:16.675Z,16.72
2023-05-19T18:37:44.773Z,16.70
2023-05-19T18:40:14.263Z,16.71
2023-05-19T18:42:42.265Z,16.67
2023-05-19T18:45:10.902Z,16.69
2023-05-19T18:47:38.919Z,16.68
2023-05-19T18:50:09.331Z,16.61
2023-05-19T18:52:37.350Z,16.66
2023-05-19T18:55:05.819Z,16.68
2023-05-19T18:57:35.190Z,16.69
2023-05-19T19:00:03.224Z,16.70
2023-05-19T19:02:31.356Z,16.70
2023-05-19T19:04:59.787Z,16.72
2023-05-19T19:07:28.039Z,16.74
2023-05-19T19:09:56.032Z,16.69
2023-05-19T19:12:24.058Z,16.71
2023-05-19T19:14:53.404Z,16.65
2023-05-19T19:17:21.595Z,16.70
2023-05-19T19:19:49.807Z,16.68
2023-05-19T19:22:17.847Z,16.66
2023-05-19T19:24:45.843Z,16.61
2023-05-19T19:27:16.338Z,16.56
2023-05-19T19:29:44.301Z,16.49
2023-05-19T19:32:13.677Z,16.37
2023-05-19T19:34:41.645Z,16.34
2023-05-19T19:37:09.779Z,16.24
2023-05-19T19:39:38.165Z,16.19
2023-05-19T19:42:06.658Z,16.19
2023-05-19T19:44:34.632Z,16.14
2023-05-19T19:47:06.096Z,16.09
2023-05-19T19:49:35.471Z,16.04
2023-05-19T19:52:03.482Z,15.98
2023-05-19T19:54:31.547Z,15.94
2023-05-19T19:56:59.553Z,15.87
2023-05-19T19:59:27.607Z,15.78
2023-05-19T20:01:55.663Z,15.67
2023-05-19T20:04:23.835Z,15.55
2023-05-19T20:06:53.426Z,15.46
2023-05-19T20:09:21.434Z,15.34
2023-05-19T20:11:49.415Z,15.24
2023-05-19T20:14:18.858Z,15.18
2023-05-19T20:16:47.103Z,15.14
2023-05-19T20:19:15.187Z,15.08
2023-05-19T20:21:43.116Z,15.05
2023-05-19T20:24:12.485Z,15.03
2023-05-19T20:26:40.469Z,15.04
2023-05-19T20:29:08.479Z,15.04
2023-05-19T20:31:36.485Z,15.05
2023-05-19T20:34:04.495Z,15.05
2023-05-19T20:36:32.507Z,15.04
2023-05-19T20:39:00.492Z,15.02
2023-05-19T20:41:29.853Z,15.03
2023-05-19T20:43:57.866Z,15.05
2023-05-19T20:46:25.866Z,15.06
2023-05-19T20:48:53.906Z,15.08
2023-05-19T20:51:22.366Z,15.10
2023-05-19T20:53:50.695Z,15.12
2023-05-19T20:56:19.789Z,15.15
2023-05-19T20:58:49.174Z,15.17
2023-05-19T21:01:17.304Z,15.22
2023-05-19T21:03:45.432Z,15.23
2023-05-19T21:06:13.541Z,15.26
2023-05-19T21:08:41.595Z,15.21
2023-05-19T21:11:09.567Z,15.31
2023-05-19T21:13:39.142Z,15.41
2023-05-19T21:16:08.848Z,15.43
2023-05-19T21:18:36.868Z,15.44
2023-05-19T21:21:05.007Z,15.49
2023-05-19T21:23:33.011Z,15.51
2023-05-19T21:26:00.966Z,15.52
2023-05-19T21:28:28.908Z,15.58
2023-05-19T21:30:56.881Z,15.56
2023-05-19T21:33:26.313Z,15.57
2023-05-19T21:35:54.318Z,15.56
2023-05-19T21:38:24.154Z,15.58
2023-05-19T21:40:52.435Z,15.57
2023-05-19T21:43:21.444Z,15.57
2023-05-19T21:45:49.505Z,15.55
2023-05-19T21:48:17.679Z,15.47
2023-05-19T21:50:47.128Z,15.46
2023-05-19T21:53:15.164Z,15.39
2023-05-19T21:55:43.162Z,15.35
2023-05-19T21:58:11.148Z,15.38
2023-05-19T22:00:39.216Z,15.36
2023-05-19T22:03:07.417Z,15.37
2023-05-19T22:05:38.054Z,15.37
2023-05-19T22:08:07.473Z,15.37
2023-05-19T22:10:37.220Z,15.45
2023-05-19T22:13:05.550Z,15.52
2023-05-19T22:15:33.542Z,15.53
2023-05-19T22:18:01.551Z,15.55
2023-05-19T22:20:29.599Z,15.55
2023-05-19T22:22:59.478Z,15.56
2023-05-19T22:25:28.872Z,15.55
2023-05-19T22:27:56.900Z,15.57
2023-05-19T22:30:25.057Z,15.56
2023-05-19T22:32:53.179Z,15.54
2023-05-19T22:35:21.268Z,15.51
2023-05-19T22:37:49.217Z,15.46
2023-05-19T22:40:17.871Z,15.40
2023-05-19T22:42:47.215Z,15.35
2023-05-19T22:45:15.608Z,15.25
2023-05-19T22:47:43.684Z,15.19
2023-05-19T22:50:12.353Z,15.13
2023-05-19T22:52:40.371Z,15.16
2023-05-19T22:55:09.300Z,15.13
2023-05-19T22:57:37.312Z,15.14
2023-05-19T23:00:08.375Z,15.16
2023-05-19T23:02:36.401Z,15.18
2023-05-19T23:05:04.815Z,15.22
2023-05-19T23:07:32.830Z,15.24
2023-05-19T23:10:01.068Z,15.23
2023-05-19T23:12:29.156Z,15.21
2023-05-19T23:14:57.138Z,15.17
2023-05-19T23:17:26.580Z,15.13
2023-05-19T23:19:54.676Z,15.12
2023-05-19T23:22:22.678Z,15.10
2023-05-19T23:24:50.840Z,15.12
2023-05-19T23:27:18.829Z,15.11
2023-05-19T23:29:49.080Z,15.16
2023-05-19T23:32:17.111Z,15.15
2023-05-19T23:34:48.388Z,15.22
2023-05-19T23:37:16.372Z,15.26
2023-05-19T23:39:44.445Z,15.29
2023-05-19T23:42:13.180Z,15.33
2023-05-19T23:44:41.196Z,15.35
2023-05-19T23:47:09.218Z,15.35
2023-05-19T23:49:37.343Z,15.38
2023-05-19T23:52:07.454Z,15.40
2023-05-19T23:54:35.462Z,15.41
2023-05-19T23:57:04.201Z,15.34
2023-05-19T23:59:32.140Z,15.36
